createdAt,value
2023-02-15T00:00:29.351Z,-.61
2023-02-15T00:01:01.907Z,-.50
2023-02-15T00:01:32.857Z,-.50
2023-02-15T00:02:05.858Z,-.38
2023-02-15T00:02:37.135Z,-.27
2023-02-15T00:03:10.111Z,-.27
2023-02-15T00:03:40.834Z,-.27
2023-02-15T00:04:13.699Z,-.22
2023-02-15T00:04:44.892Z,-.22
2023-02-15T00:05:17.951Z,-.22
2023-02-15T00:05:48.745Z,-.22
2023-02-15T00:06:21.796Z,-.22
2023-02-15T00:06:52.820Z,-.22
2023-02-15T00:07:25.703Z,-.22
2023-02-15T00:07:56.596Z,-.11
2023-02-15T00:08:29.708Z,-.11
2023-02-15T00:09:00.771Z,-.11
2023-02-15T00:09:33.792Z,-.11
2023-02-15T00:10:04.611Z,-.11
2023-02-15T00:10:37.637Z,-.11
2023-02-15T00:11:08.594Z,-.11
2023-02-15T00:11:41.422Z,-.11
2023-02-15T00:12:12.468Z,-.11
2023-02-15T00:12:45.368Z,-.11
2023-02-15T00:13:16.528Z,-.11
2023-02-15T00:13:49.429Z,-.11
2023-02-15T00:14:20.498Z,-.11
2023-02-15T00:14:53.302Z,-.11
2023-02-15T00:15:24.587Z,-.11
2023-02-15T00:15:57.380Z,-.11
2023-02-15T00:16:28.368Z,-.11
2023-02-15T00:17:01.242Z,-.11
2023-02-15T00:17:32.478Z,-.11
2023-02-15T00:18:05.200Z,-.11
2023-02-15T00:18:36.373Z,-.11
2023-02-15T00:19:09.154Z,0
2023-02-15T00:19:40.314Z,0
2023-02-15T00:20:12.972Z,0
2023-02-15T00:20:44.118Z,0
2023-02-15T00:21:17.064Z,0
2023-02-15T00:21:48.258Z,0
2023-02-15T00:22:21.044Z,0
2023-02-15T00:22:52.051Z,0
2023-02-15T00:23:25.122Z,0
2023-02-15T00:23:56.136Z,0
2023-02-15T00:24:28.839Z,0
2023-02-15T00:24:59.944Z,0
2023-02-15T00:25:32.986Z,0
2023-02-15T00:26:04.032Z,0
2023-02-15T00:26:37.569Z,0
2023-02-15T00:27:07.894Z,0
2023-02-15T00:27:40.848Z,0
2023-02-15T00:28:12.142Z,0
2023-02-15T00:28:44.718Z,.11
2023-02-15T00:29:15.756Z,.11
2023-02-15T00:29:48.765Z,.11
2023-02-15T00:30:20.078Z,.11
2023-02-15T00:30:52.687Z,.11
2023-02-15T00:31:23.820Z,.11
2023-02-15T00:31:56.734Z,.11
2023-02-15T00:32:27.766Z,.11
2023-02-15T00:33:00.689Z,.11
2023-02-15T00:33:31.623Z,.11
2023-02-15T00:34:04.741Z,.11
2023-02-15T00:34:35.877Z,.11
2023-02-15T00:35:08.429Z,.11
2023-02-15T00:35:39.535Z,.11
2023-02-15T00:36:12.512Z,.11
2023-02-15T00:36:43.391Z,.11
2023-02-15T00:37:16.379Z,.11
2023-02-15T00:37:47.659Z,.22
2023-02-15T00:38:20.689Z,.22
2023-02-15T00:38:51.456Z,.22
2023-02-15T00:39:24.177Z,.22
2023-02-15T00:39:55.379Z,.22
2023-02-15T00:40:28.523Z,.22
2023-02-15T00:40:59.209Z,.22
2023-02-15T00:41:32.144Z,.22
2023-02-15T00:42:03.300Z,.22
2023-02-15T00:42:36.214Z,.22
2023-02-15T00:43:07.288Z,.22
2023-02-15T00:43:40.458Z,.22
2023-02-15T00:44:11.315Z,.22
2023-02-15T00:44:44.129Z,.22
2023-02-15T00:45:17.270Z,.22
2023-02-15T00:45:52.505Z,.22
2023-02-15T00:46:19.231Z,.22
2023-02-15T00:46:51.083Z,.22
2023-02-15T00:47:23.037Z,.22
2023-02-15T00:47:55.022Z,.22
2023-02-15T00:48:27.077Z,.22
2023-02-15T00:48:59.074Z,.22
2023-02-15T00:49:30.950Z,.22
2023-02-15T00:50:02.979Z,.22
2023-02-15T00:50:34.910Z,.22
2023-02-15T00:51:06.834Z,.22
2023-02-15T00:51:38.852Z,.22
2023-02-15T00:52:10.990Z,.22
2023-02-15T00:52:42.946Z,.22
2023-02-15T00:53:14.773Z,.22
2023-02-15T00:53:46.801Z,.22
2023-02-15T00:54:18.837Z,.22
2023-02-15T00:54:50.721Z,.22
2023-02-15T00:55:22.674Z,.22
2023-02-15T00:55:54.669Z,.22
2023-02-15T00:56:26.777Z,.22
2023-02-15T00:56:58.546Z,.22
2023-02-15T00:57:30.646Z,.22
2023-02-15T00:58:02.627Z,.22
2023-02-15T00:58:34.666Z,.22
2023-02-15T00:59:06.431Z,.22
2023-02-15T00:59:38.485Z,.22
2023-02-15T01:00:11.540Z,.22
2023-02-15T01:00:42.553Z,.22
2023-02-15T01:01:14.385Z,.22
2023-02-15T01:01:46.418Z,.22
2023-02-15T01:02:18.491Z,.22
2023-02-15T01:02:50.538Z,.22
2023-02-15T01:03:22.330Z,.22
2023-02-15T01:03:54.355Z,.22
2023-02-15T01:04:26.517Z,.27
2023-02-15T01:04:58.333Z,.27
2023-02-15T01:05:30.152Z,.27
2023-02-15T01:06:02.726Z,.22
2023-02-15T01:06:34.291Z,.22
2023-02-15T01:07:06.309Z,.22
2023-02-15T01:07:38.095Z,.22
2023-02-15T01:08:10.400Z,.22
2023-02-15T01:08:42.210Z,.22
2023-02-15T01:09:14.257Z,.22
2023-02-15T01:09:46.143Z,.22
2023-02-15T01:10:18.179Z,.22
2023-02-15T01:10:50.095Z,.22
2023-02-15T01:11:22.113Z,.22
2023-02-15T01:11:53.955Z,.22
2023-02-15T01:12:25.988Z,.22
2023-02-15T01:12:57.979Z,.22
2023-02-15T01:13:30.032Z,.22
2023-02-15T01:14:01.867Z,.22
2023-02-15T01:14:34.624Z,.22
2023-02-15T01:15:06.433Z,.22
2023-02-15T01:15:38.063Z,.22
2023-02-15T01:16:09.881Z,.22
2023-02-15T01:16:41.831Z,.22
2023-02-15T01:17:13.839Z,.22
2023-02-15T01:17:45.923Z,.22
2023-02-15T01:18:17.860Z,.22
2023-02-15T01:18:49.756Z,.22
2023-02-15T01:19:21.753Z,.22
2023-02-15T01:19:53.804Z,.22
2023-02-15T01:20:25.631Z,.22
2023-02-15T01:20:57.660Z,.22
2023-02-15T01:21:29.716Z,.22
2023-02-15T01:22:01.535Z,.22
2023-02-15T01:22:33.564Z,.22
2023-02-15T01:23:05.584Z,.22
2023-02-15T01:23:37.664Z,.22
2023-02-15T01:24:09.404Z,.22
2023-02-15T01:24:41.457Z,.22
2023-02-15T01:25:13.441Z,.22
2023-02-15T01:25:45.508Z,.22
2023-02-15T01:26:17.411Z,.22
2023-02-15T01:26:49.397Z,.22
2023-02-15T01:27:21.757Z,.22
2023-02-15T01:27:53.406Z,.22
2023-02-15T01:28:25.289Z,.22
2023-02-15T01:28:57.315Z,.22
2023-02-15T01:29:29.320Z,.22
2023-02-15T01:30:02.101Z,.22
2023-02-15T01:30:33.148Z,.22
2023-02-15T01:31:05.347Z,.22
2023-02-15T01:31:37.356Z,.22
2023-02-15T01:32:09.941Z,.22
2023-02-15T01:32:41.202Z,.22
2023-02-15T01:33:13.051Z,.22
2023-02-15T01:33:45.238Z,.22
2023-02-15T01:34:17.244Z,.22
2023-02-15T01:34:48.981Z,.22
2023-02-15T01:35:21.094Z,.22
2023-02-15T01:35:53.123Z,.22
2023-02-15T01:36:25.083Z,.22
2023-02-15T01:36:57.229Z,.22
2023-02-15T01:37:28.907Z,.22
2023-02-15T01:38:00.996Z,.22
2023-02-15T01:38:33.020Z,.22
2023-02-15T01:39:04.855Z,.11
2023-02-15T01:39:36.856Z,.11
2023-02-15T01:40:08.896Z,.11
2023-02-15T01:40:40.960Z,.11
2023-02-15T01:41:12.682Z,.11
2023-02-15T01:41:44.850Z,.11
2023-02-15T01:42:16.838Z,.11
2023-02-15T01:42:48.828Z,.11
2023-02-15T01:43:20.745Z,.11
2023-02-15T01:43:52.719Z,.11
2023-02-15T01:44:24.708Z,.11
2023-02-15T01:44:56.742Z,.11
2023-02-15T01:45:28.708Z,.11
2023-02-15T01:46:01.036Z,.11
2023-02-15T01:46:32.665Z,.11
2023-02-15T01:47:04.651Z,.11
2023-02-15T01:47:36.513Z,.11
2023-02-15T01:48:08.436Z,.11
2023-02-15T01:48:40.588Z,.11
2023-02-15T01:49:12.570Z,.11
2023-02-15T01:49:44.426Z,.11
2023-02-15T01:50:16.410Z,.11
2023-02-15T01:50:48.432Z,.11
2023-02-15T01:51:20.371Z,.11
2023-02-15T01:51:52.379Z,.11
2023-02-15T01:52:24.313Z,.11
2023-02-15T01:52:56.393Z,.11
2023-02-15T01:53:28.166Z,.11
2023-02-15T01:54:00.225Z,.11
2023-02-15T01:54:32.188Z,.11
2023-02-15T01:55:05.616Z,.11
2023-02-15T01:55:36.053Z,.11
2023-02-15T01:56:08.089Z,.11
2023-02-15T01:56:40.184Z,.11
2023-02-15T01:57:12.189Z,.11
2023-02-15T01:57:44.077Z,.11
2023-02-15T01:58:16.056Z,.11
2023-02-15T01:58:48.102Z,.11
2023-02-15T01:59:20.094Z,.11
2023-02-15T01:59:51.924Z,.11
2023-02-15T02:00:24.184Z,.11
2023-02-15T02:00:55.931Z,.11
2023-02-15T02:01:28.070Z,.11
2023-02-15T02:01:59.913Z,.11
2023-02-15T02:02:31.873Z,.11
2023-02-15T02:03:03.979Z,.11
2023-02-15T02:03:35.927Z,.11
2023-02-15T02:04:07.843Z,.11
2023-02-15T02:04:39.774Z,.11
2023-02-15T02:05:11.818Z,.11
2023-02-15T02:05:43.830Z,.11
2023-02-15T02:06:15.627Z,.11
2023-02-15T02:06:47.683Z,.11
2023-02-15T02:07:19.679Z,0
2023-02-15T02:07:51.724Z,0
2023-02-15T02:08:23.535Z,0
2023-02-15T02:08:55.619Z,0
2023-02-15T02:09:27.712Z,0
2023-02-15T02:09:59.690Z,0
2023-02-15T02:10:31.526Z,0
2023-02-15T02:11:03.527Z,0
2023-02-15T02:11:35.912Z,0
2023-02-15T02:12:07.602Z,0
2023-02-15T02:12:39.443Z,0
2023-02-15T02:13:11.489Z,0
2023-02-15T02:13:43.524Z,0
2023-02-15T02:14:15.581Z,0
2023-02-15T02:14:47.261Z,0
2023-02-15T02:15:19.489Z,-.11
2023-02-15T02:15:51.455Z,-.11
2023-02-15T02:16:23.461Z,-.11
2023-02-15T02:16:55.256Z,-.11
2023-02-15T02:17:27.283Z,-.11
2023-02-15T02:17:59.287Z,-.11
2023-02-15T02:18:31.419Z,-.11
2023-02-15T02:19:03.170Z,-.11
2023-02-15T02:19:35.113Z,-.11
2023-02-15T02:20:07.199Z,-.11
2023-02-15T02:20:39.248Z,-.11
2023-02-15T02:21:11.088Z,-.11
2023-02-15T02:21:43.139Z,-.11
2023-02-15T02:22:15.157Z,-.11
2023-02-15T02:22:47.200Z,-.11
2023-02-15T02:23:18.978Z,-.11
2023-02-15T02:23:51.107Z,-.11
2023-02-15T02:24:23.181Z,-.11
2023-02-15T02:24:54.869Z,-.22
2023-02-15T02:25:26.857Z,-.22
2023-02-15T02:25:59.178Z,-.22
2023-02-15T02:26:30.958Z,-.22
2023-02-15T02:27:02.801Z,-.22
2023-02-15T02:27:34.827Z,-.22
2023-02-15T02:28:06.913Z,-.22
2023-02-15T02:28:38.965Z,-.22
2023-02-15T02:29:10.803Z,-.22
2023-02-15T02:29:42.754Z,-.22
2023-02-15T02:30:15.019Z,-.22
2023-02-15T02:30:47.259Z,-.22
2023-02-15T02:31:18.752Z,-.22
2023-02-15T02:31:50.802Z,-.22
2023-02-15T02:32:22.767Z,-.22
2023-02-15T02:32:54.720Z,-.22
2023-02-15T02:33:26.569Z,-.22
2023-02-15T02:33:58.577Z,-.22
2023-02-15T02:34:30.692Z,-.22
2023-02-15T02:35:02.560Z,-.22
2023-02-15T02:35:34.450Z,-.22
2023-02-15T02:36:06.485Z,-.22
2023-02-15T02:36:38.478Z,-.22
2023-02-15T02:37:10.733Z,-.22
2023-02-15T02:37:43.348Z,-.22
2023-02-15T02:38:14.339Z,-.22
2023-02-15T02:38:46.404Z,-.22
2023-02-15T02:39:18.448Z,-.22
2023-02-15T02:39:50.343Z,-.22
2023-02-15T02:40:22.318Z,-.22
2023-02-15T02:40:54.306Z,-.22
2023-02-15T02:41:26.282Z,-.22
2023-02-15T02:41:58.261Z,-.22
2023-02-15T02:42:30.144Z,-.22
2023-02-15T02:43:02.212Z,-.22
2023-02-15T02:43:34.240Z,-.11
2023-02-15T02:44:06.078Z,-.11
2023-02-15T02:44:38.115Z,-.11
2023-02-15T02:45:10.479Z,-.11
2023-02-15T02:45:42.221Z,-.11
2023-02-15T02:46:14.067Z,-.11
2023-02-15T02:46:46.055Z,-.11
2023-02-15T02:47:18.107Z,-.11
2023-02-15T02:47:50.135Z,-.11
2023-02-15T02:48:21.938Z,-.11
2023-02-15T02:48:53.944Z,-.11
2023-02-15T02:49:25.945Z,-.11
2023-02-15T02:49:57.960Z,-.11
2023-02-15T02:50:29.808Z,-.11
2023-02-15T02:51:01.844Z,-.11
2023-02-15T02:51:33.859Z,-.11
2023-02-15T02:52:05.856Z,-.11
2023-02-15T02:52:37.733Z,-.11
2023-02-15T02:53:10.356Z,-.11
2023-02-15T02:53:41.824Z,-.11
2023-02-15T02:54:13.886Z,-.11
2023-02-15T02:54:45.669Z,-.11
2023-02-15T02:55:17.713Z,-.11
2023-02-15T02:55:49.735Z,-.11
2023-02-15T02:56:21.610Z,-.11
2023-02-15T02:56:53.507Z,-.11
2023-02-15T02:57:25.650Z,-.11
2023-02-15T02:57:57.624Z,-.11
2023-02-15T02:58:29.713Z,-.11
2023-02-15T02:59:01.518Z,-.22
2023-02-15T02:59:33.515Z,-.22
2023-02-15T03:00:06.848Z,-.22
2023-02-15T03:00:37.576Z,-.22
2023-02-15T03:01:09.370Z,-.27
2023-02-15T03:01:41.495Z,-.27
2023-02-15T03:02:13.463Z,-.27
2023-02-15T03:02:45.413Z,-.27
2023-02-15T03:03:17.329Z,-.27
2023-02-15T03:03:49.409Z,-.27
2023-02-15T03:04:21.500Z,-.27
2023-02-15T03:04:53.127Z,-.27
2023-02-15T03:05:25.203Z,-.27
2023-02-15T03:05:57.274Z,-.27
2023-02-15T03:06:29.287Z,-.27
2023-02-15T03:07:01.192Z,-.27
2023-02-15T03:07:33.149Z,-.27
2023-02-15T03:08:05.118Z,-.27
2023-02-15T03:08:37.217Z,-.27
2023-02-15T03:09:08.988Z,-.27
2023-02-15T03:09:41.239Z,-.27
2023-02-15T03:10:13.088Z,-.27
2023-02-15T03:10:45.109Z,-.27
2023-02-15T03:11:16.931Z,-.27
2023-02-15T03:11:48.962Z,-.27
2023-02-15T03:12:21.154Z,-.27
2023-02-15T03:12:52.834Z,-.27
2023-02-15T03:13:25.084Z,-.27
2023-02-15T03:13:56.900Z,-.27
2023-02-15T03:14:28.956Z,-.27
2023-02-15T03:15:01.805Z,-.27
2023-02-15T03:15:32.836Z,-.27
2023-02-15T03:16:05.019Z,-.27
2023-02-15T03:16:36.890Z,-.27
2023-02-15T03:17:08.705Z,-.27
2023-02-15T03:17:40.869Z,-.27
2023-02-15T03:18:12.766Z,-.27
2023-02-15T03:18:44.788Z,-.22
2023-02-15T03:19:16.610Z,-.22
2023-02-15T03:19:48.637Z,-.22
2023-02-15T03:20:20.767Z,-.22
2023-02-15T03:20:52.682Z,-.22
2023-02-15T03:21:24.469Z,-.22
2023-02-15T03:21:56.534Z,-.22
2023-02-15T03:22:28.579Z,-.22
2023-02-15T03:23:00.852Z,-.22
2023-02-15T03:23:32.500Z,-.22
2023-02-15T03:24:04.464Z,-.22
2023-02-15T03:24:36.444Z,-.22
2023-02-15T03:25:08.529Z,-.22
2023-02-15T03:25:40.517Z,-.22
2023-02-15T03:26:12.412Z,-.22
2023-02-15T03:26:44.429Z,-.22
2023-02-15T03:27:16.485Z,-.22
2023-02-15T03:27:48.201Z,-.22
2023-02-15T03:28:20.452Z,-.22
2023-02-15T03:28:52.375Z,-.22
2023-02-15T03:29:24.359Z,-.22
2023-02-15T03:29:56.172Z,-.22
2023-02-15T03:30:28.447Z,-.22
2023-02-15T03:31:00.378Z,-.22
2023-02-15T03:31:32.206Z,-.22
2023-02-15T03:32:04.225Z,-.22
2023-02-15T03:32:36.126Z,-.22
2023-02-15T03:33:08.164Z,-.22
2023-02-15T03:33:40.022Z,-.22
2023-02-15T03:34:12.061Z,-.22
2023-02-15T03:34:44.023Z,-.22
2023-02-15T03:35:16.070Z,-.22
2023-02-15T03:35:47.822Z,-.22
2023-02-15T03:36:19.878Z,-.22
2023-02-15T03:36:51.887Z,-.22
2023-02-15T03:37:23.966Z,-.22
2023-02-15T03:37:55.803Z,-.22
2023-02-15T03:38:27.861Z,-.22
2023-02-15T03:38:59.888Z,-.22
2023-02-15T03:39:31.865Z,-.22
2023-02-15T03:40:03.744Z,-.22
2023-02-15T03:40:35.747Z,-.22
2023-02-15T03:41:07.800Z,-.22
2023-02-15T03:41:39.863Z,-.22
2023-02-15T03:42:11.681Z,-.27
2023-02-15T03:42:43.649Z,-.27
2023-02-15T03:43:15.732Z,-.27
2023-02-15T03:43:47.707Z,-.27
2023-02-15T03:44:19.536Z,-.22
2023-02-15T03:44:51.593Z,-.22
2023-02-15T03:45:23.746Z,-.22
2023-02-15T03:45:55.898Z,-.22
2023-02-15T03:46:27.577Z,-.22
2023-02-15T03:46:59.630Z,-.22
2023-02-15T03:47:31.504Z,-.27
2023-02-15T03:48:03.561Z,-.27
2023-02-15T03:48:35.393Z,-.27
2023-02-15T03:49:07.403Z,-.27
2023-02-15T03:49:39.439Z,-.27
2023-02-15T03:50:11.506Z,-.27
2023-02-15T03:50:43.284Z,-.27
2023-02-15T03:51:15.392Z,-.27
2023-02-15T03:51:47.372Z,-.27
2023-02-15T03:52:19.361Z,-.27
2023-02-15T03:52:51.301Z,-.27
2023-02-15T03:53:23.233Z,-.27
2023-02-15T03:53:55.273Z,-.27
2023-02-15T03:54:27.233Z,-.27
2023-02-15T03:54:59.221Z,-.27
2023-02-15T03:55:31.237Z,-.27
2023-02-15T03:56:03.518Z,-.27
2023-02-15T03:56:35.150Z,-.27
2023-02-15T03:57:07.031Z,-.27
2023-02-15T03:57:39.103Z,-.27
2023-02-15T03:58:11.240Z,-.27
2023-02-15T03:58:43.120Z,-.27
2023-02-15T03:59:14.936Z,-.27
2023-02-15T03:59:46.954Z,-.27
2023-02-15T04:00:19.271Z,-.27
2023-02-15T04:00:51.178Z,-.38
2023-02-15T04:01:22.892Z,-.38
2023-02-15T04:01:54.851Z,-.38
2023-02-15T04:02:26.903Z,-.38
2023-02-15T04:02:59.004Z,-.38
2023-02-15T04:03:30.968Z,-.38
2023-02-15T04:04:02.925Z,-.38
2023-02-15T04:04:34.857Z,-.38
2023-02-15T04:05:06.888Z,-.38
2023-02-15T04:05:38.681Z,-.38
2023-02-15T04:06:10.888Z,-.38
2023-02-15T04:06:42.740Z,-.38
2023-02-15T04:07:14.581Z,-.38
2023-02-15T04:07:46.596Z,-.38
2023-02-15T04:08:18.641Z,-.38
2023-02-15T04:08:50.772Z,-.38
2023-02-15T04:09:22.469Z,-.27
2023-02-15T04:09:54.515Z,-.27
2023-02-15T04:10:26.577Z,-.27
2023-02-15T04:10:58.598Z,-.27
2023-02-15T04:11:30.437Z,-.27
2023-02-15T04:12:02.433Z,-.27
2023-02-15T04:12:34.465Z,-.27
2023-02-15T04:13:06.478Z,-.27
2023-02-15T04:13:38.373Z,-.27
2023-02-15T04:14:10.513Z,-.27
2023-02-15T04:14:42.323Z,-.27
2023-02-15T04:15:14.610Z,-.27
2023-02-15T04:15:46.188Z,-.27
2023-02-15T04:16:18.349Z,-.27
2023-02-15T04:16:50.405Z,-.27
2023-02-15T04:17:22.354Z,-.27
2023-02-15T04:17:54.169Z,-.27
2023-02-15T04:18:26.191Z,-.27
2023-02-15T04:18:58.398Z,-.27
2023-02-15T04:19:30.226Z,-.27
2023-02-15T04:20:02.111Z,-.27
2023-02-15T04:20:34.093Z,-.27
2023-02-15T04:21:06.194Z,-.38
2023-02-15T04:21:38.187Z,-.38
2023-02-15T04:22:09.990Z,-.38
2023-02-15T04:22:41.990Z,-.38
2023-02-15T04:23:13.970Z,-.38
2023-02-15T04:23:46.115Z,-.38
2023-02-15T04:24:17.898Z,-.50
2023-02-15T04:24:49.891Z,-.50
2023-02-15T04:25:21.907Z,-.50
2023-02-15T04:25:54.049Z,-.50
2023-02-15T04:26:25.817Z,-.50
2023-02-15T04:26:57.932Z,-.50
2023-02-15T04:27:29.842Z,-.50
2023-02-15T04:28:01.885Z,-.50
2023-02-15T04:28:33.748Z,-.50
2023-02-15T04:29:05.700Z,-.50
2023-02-15T04:29:37.782Z,-.50
2023-02-15T04:30:10.521Z,-.50
2023-02-15T04:30:41.642Z,-.50
2023-02-15T04:31:13.772Z,-.50
2023-02-15T04:31:45.824Z,-.50
2023-02-15T04:32:17.758Z,-.50
2023-02-15T04:32:49.612Z,-.50
2023-02-15T04:33:21.611Z,-.50
2023-02-15T04:33:53.610Z,-.50
2023-02-15T04:34:25.584Z,-.50
2023-02-15T04:34:57.451Z,-.50
2023-02-15T04:35:29.466Z,-.61
2023-02-15T04:36:01.754Z,-.61
2023-02-15T04:36:33.330Z,-.50
2023-02-15T04:37:05.361Z,-.61
2023-02-15T04:37:37.435Z,-.61
2023-02-15T04:38:09.391Z,-.61
2023-02-15T04:38:41.394Z,-.61
2023-02-15T04:39:13.316Z,-.61
2023-02-15T04:39:45.289Z,-.61
2023-02-15T04:40:19.224Z,-.61
2023-02-15T04:40:49.378Z,-.61
2023-02-15T04:41:21.308Z,-.61
2023-02-15T04:41:53.167Z,-.61
2023-02-15T04:42:25.229Z,-.61
2023-02-15T04:42:57.064Z,-.61
2023-02-15T04:43:29.153Z,-.61
2023-02-15T04:44:01.176Z,-.61
2023-02-15T04:44:33.165Z,-.61
2023-02-15T04:45:05.500Z,-.61
2023-02-15T04:45:37.101Z,-.61
2023-02-15T04:46:09.126Z,-.61
2023-02-15T04:46:41.152Z,-.61
2023-02-15T04:47:12.840Z,-.61
2023-02-15T04:47:44.938Z,-.61
2023-02-15T04:48:16.896Z,-.61
2023-02-15T04:48:49.004Z,-.61
2023-02-15T04:49:20.868Z,-.61
2023-02-15T04:49:52.850Z,-.61
2023-02-15T04:50:24.922Z,-.61
2023-02-15T04:50:56.918Z,-.61
2023-02-15T04:51:28.798Z,-.61
2023-02-15T04:52:00.826Z,-.61
2023-02-15T04:52:32.828Z,-.50
2023-02-15T04:53:04.849Z,-.50
2023-02-15T04:53:36.868Z,-.50
2023-02-15T04:54:08.743Z,-.50
2023-02-15T04:54:40.766Z,-.50
2023-02-15T04:55:12.680Z,-.50
2023-02-15T04:55:44.606Z,-.50
2023-02-15T04:56:16.608Z,-.50
2023-02-15T04:56:48.671Z,-.50
2023-02-15T04:57:20.763Z,-.50
2023-02-15T04:57:52.431Z,-.50
2023-02-15T04:58:24.530Z,-.50
2023-02-15T04:58:56.697Z,-.50
2023-02-15T04:59:28.526Z,-.50
2023-02-15T05:00:01.189Z,-.50
2023-02-15T05:00:32.379Z,-.50
2023-02-15T05:01:04.446Z,-.61
2023-02-15T05:01:36.349Z,-.61
2023-02-15T05:02:08.331Z,-.61
2023-02-15T05:02:40.472Z,-.61
2023-02-15T05:03:12.314Z,-.61
2023-02-15T05:03:44.193Z,-.61
2023-02-15T05:04:16.289Z,-.61
2023-02-15T05:04:48.214Z,-.61
2023-02-15T05:05:20.352Z,-.61
2023-02-15T05:05:52.316Z,-.61
2023-02-15T05:06:24.082Z,-.61
2023-02-15T05:06:56.146Z,-.61
2023-02-15T05:07:28.232Z,-.61
2023-02-15T05:08:00.012Z,-.61
2023-02-15T05:08:32.081Z,-.61
2023-02-15T05:09:04.096Z,-.61
2023-02-15T05:09:36.350Z,-.61
2023-02-15T05:10:07.969Z,-.61
2023-02-15T05:10:39.962Z,-.61
2023-02-15T05:11:11.944Z,-.61
2023-02-15T05:11:44.053Z,-.61
2023-02-15T05:12:15.863Z,-.61
2023-02-15T05:12:47.827Z,-.72
2023-02-15T05:13:19.905Z,-.72
2023-02-15T05:13:51.945Z,-.72
2023-02-15T05:14:23.737Z,-.72
2023-02-15T05:14:55.777Z,-.72
2023-02-15T05:15:28.014Z,-.72
2023-02-15T05:16:00.165Z,-.72
2023-02-15T05:16:31.703Z,-.72
2023-02-15T05:17:03.675Z,-.72
2023-02-15T05:17:35.963Z,-.72
2023-02-15T05:18:07.830Z,-.72
2023-02-15T05:18:39.655Z,-.72
2023-02-15T05:19:11.655Z,-.72
2023-02-15T05:19:43.639Z,-.72
2023-02-15T05:20:15.728Z,-.72
2023-02-15T05:20:47.492Z,-.72
2023-02-15T05:21:20.173Z,-.72
2023-02-15T05:21:51.621Z,-.72
2023-02-15T05:22:23.575Z,-.72
2023-02-15T05:22:55.399Z,-.72
2023-02-15T05:23:27.475Z,-.72
2023-02-15T05:23:59.464Z,-.72
2023-02-15T05:24:31.489Z,-.72
2023-02-15T05:25:03.360Z,-.72
2023-02-15T05:25:35.425Z,-.72
2023-02-15T05:26:07.505Z,-.72
2023-02-15T05:26:39.463Z,-.72
2023-02-15T05:27:11.331Z,-.72
2023-02-15T05:27:43.216Z,-.72
2023-02-15T05:28:15.295Z,-.72
2023-02-15T05:28:47.365Z,-.72
2023-02-15T05:29:19.291Z,-.72
2023-02-15T05:29:51.262Z,-.72
2023-02-15T05:30:23.548Z,-.72
2023-02-15T05:30:55.476Z,-.72
2023-02-15T05:31:27.376Z,-.72
2023-02-15T05:31:59.241Z,-.72
2023-02-15T05:32:31.468Z,-.72
2023-02-15T05:33:02.977Z,-.61
2023-02-15T05:33:35.658Z,-.61
2023-02-15T05:34:07.022Z,-.61
2023-02-15T05:34:39.058Z,-.72
2023-02-15T05:35:11.172Z,-.72
2023-02-15T05:35:42.848Z,-.72
2023-02-15T05:36:14.904Z,-.72
2023-02-15T05:36:47.000Z,-.72
2023-02-15T05:37:18.814Z,-.72
2023-02-15T05:37:50.916Z,-.72
2023-02-15T05:38:22.862Z,-.72
2023-02-15T05:38:54.950Z,-.72
2023-02-15T05:39:26.706Z,-.61
2023-02-15T05:39:58.778Z,-.61
2023-02-15T05:40:30.859Z,-.61
2023-02-15T05:41:02.808Z,-.61
2023-02-15T05:41:35.145Z,-.61
2023-02-15T05:42:06.711Z,-.61
2023-02-15T05:42:38.701Z,-.72
2023-02-15T05:43:10.684Z,-.61
2023-02-15T05:43:42.474Z,-.61
2023-02-15T05:44:14.626Z,-.61
2023-02-15T05:44:47.575Z,-.61
2023-02-15T05:45:18.835Z,-.61
2023-02-15T05:45:50.624Z,-.61
2023-02-15T05:46:22.584Z,-.61
2023-02-15T05:46:54.500Z,-.61
2023-02-15T05:47:26.581Z,-.61
2023-02-15T05:47:58.415Z,-.61
2023-02-15T05:48:30.514Z,-.61
2023-02-15T05:49:02.470Z,-.61
2023-02-15T05:49:34.451Z,-.61
2023-02-15T05:50:06.383Z,-.61
2023-02-15T05:50:38.267Z,-.61
2023-02-15T05:51:10.726Z,-.61
2023-02-15T05:51:42.254Z,-.61
2023-02-15T05:52:14.231Z,-.61
2023-02-15T05:52:46.286Z,-.61
2023-02-15T05:53:18.278Z,-.61
2023-02-15T05:53:50.221Z,-.61
2023-02-15T05:54:22.329Z,-.61
2023-02-15T05:54:54.289Z,-.61
2023-02-15T05:55:26.188Z,-.61
2023-02-15T05:55:58.396Z,-.61
2023-02-15T05:56:30.053Z,-.72
2023-02-15T05:57:02.237Z,-.72
2023-02-15T05:57:34.226Z,-.72
2023-02-15T05:58:06.000Z,-.72
2023-02-15T05:58:38.052Z,-.72
2023-02-15T05:59:09.974Z,-.72
2023-02-15T05:59:41.951Z,-.72
2023-02-15T06:00:14.572Z,-.72
2023-02-15T06:00:45.835Z,-.72
2023-02-15T06:01:17.942Z,-.72
2023-02-15T06:01:49.971Z,-.72
2023-02-15T06:02:21.975Z,-.72
2023-02-15T06:02:53.792Z,-.72
2023-02-15T06:03:25.879Z,-.72
2023-02-15T06:03:57.907Z,-.72
2023-02-15T06:04:29.612Z,-.72
2023-02-15T06:05:01.996Z,-.72
2023-02-15T06:05:33.754Z,-.72
2023-02-15T06:06:05.837Z,-.72
2023-02-15T06:06:37.564Z,-.72
2023-02-15T06:07:09.816Z,-.72
2023-02-15T06:07:41.669Z,-.72
2023-02-15T06:08:13.677Z,-.72
2023-02-15T06:08:45.602Z,-.72
2023-02-15T06:09:17.506Z,-.72
2023-02-15T06:09:49.531Z,-.72
2023-02-15T06:10:21.585Z,-.72
2023-02-15T06:10:53.391Z,-.72
2023-02-15T06:11:25.500Z,-.72
2023-02-15T06:11:57.501Z,-.77
2023-02-15T06:12:29.522Z,-.77
2023-02-15T06:13:01.416Z,-.77
2023-02-15T06:13:33.370Z,-.77
2023-02-15T06:14:05.430Z,-.77
2023-02-15T06:14:37.412Z,-.77
2023-02-15T06:15:09.593Z,-.77
2023-02-15T06:15:41.424Z,-.77
2023-02-15T06:16:13.335Z,-.77
2023-02-15T06:16:45.410Z,-.77
2023-02-15T06:17:17.176Z,-.77
2023-02-15T06:17:49.210Z,-.77
2023-02-15T06:18:21.569Z,-.77
2023-02-15T06:18:53.847Z,-.77
2023-02-15T06:19:25.053Z,-.77
2023-02-15T06:19:57.157Z,-.77
2023-02-15T06:20:29.219Z,-.77
2023-02-15T06:21:01.232Z,-.77
2023-02-15T06:21:33.124Z,-.77
2023-02-15T06:22:05.049Z,-.77
2023-02-15T06:22:37.148Z,-.77
2023-02-15T06:23:08.842Z,-.77
2023-02-15T06:23:41.023Z,-.77
2023-02-15T06:24:12.987Z,-.77
2023-02-15T06:24:45.013Z,-.77
2023-02-15T06:25:16.836Z,-.77
2023-02-15T06:25:48.971Z,-.77
2023-02-15T06:26:20.976Z,-.77
2023-02-15T06:26:52.939Z,-.77
2023-02-15T06:27:24.755Z,-.77
2023-02-15T06:27:56.755Z,-.77
2023-02-15T06:28:28.799Z,-.88
2023-02-15T06:29:00.982Z,-.88
2023-02-15T06:29:32.713Z,-.88
2023-02-15T06:30:05.291Z,-.88
2023-02-15T06:30:36.747Z,-.77
2023-02-15T06:31:09.045Z,-.77
2023-02-15T06:31:40.788Z,-.77
2023-02-15T06:32:12.719Z,-.77
2023-02-15T06:32:44.699Z,-.77
2023-02-15T06:33:16.692Z,-.77
2023-02-15T06:33:48.497Z,-.77
2023-02-15T06:34:20.597Z,-.77
2023-02-15T06:34:52.517Z,-.77
2023-02-15T06:35:24.601Z,-.77
2023-02-15T06:35:56.368Z,-.77
2023-02-15T06:36:28.485Z,-.77
2023-02-15T06:37:00.511Z,-.77
2023-02-15T06:37:32.604Z,-.77
2023-02-15T06:38:04.464Z,-.77
2023-02-15T06:38:36.327Z,-.77
2023-02-15T06:39:08.461Z,-.77
2023-02-15T06:39:40.543Z,-.77
2023-02-15T06:40:12.185Z,-.77
2023-02-15T06:40:44.242Z,-.77
2023-02-15T06:41:16.278Z,-.72
2023-02-15T06:41:48.386Z,-.72
2023-02-15T06:42:20.154Z,-.72
2023-02-15T06:42:52.238Z,-.77
2023-02-15T06:43:24.299Z,-.77
2023-02-15T06:43:56.286Z,-.77
2023-02-15T06:44:28.103Z,-.77
2023-02-15T06:45:00.052Z,-.77
2023-02-15T06:45:32.254Z,-.77
2023-02-15T06:46:04.535Z,-.77
2023-02-15T06:46:35.982Z,-.77
2023-02-15T06:47:08.038Z,-.77
2023-02-15T06:47:39.969Z,-.77
2023-02-15T06:48:12.024Z,-.77
2023-02-15T06:48:44.037Z,-.77
2023-02-15T06:49:15.941Z,-.77
2023-02-15T06:49:48.000Z,-.77
2023-02-15T06:50:19.906Z,-.77
2023-02-15T06:50:51.767Z,-.77
2023-02-15T06:51:23.857Z,-.77
2023-02-15T06:51:55.833Z,-.77
2023-02-15T06:52:27.884Z,-.77
2023-02-15T06:52:59.667Z,-.77
2023-02-15T06:53:31.687Z,-.77
2023-02-15T06:54:03.870Z,-.88
2023-02-15T06:54:35.786Z,-.88
2023-02-15T06:55:07.597Z,-.88
2023-02-15T06:55:39.656Z,-.88
2023-02-15T06:56:11.741Z,-.88
2023-02-15T06:56:43.449Z,-.88
2023-02-15T06:57:15.649Z,-.88
2023-02-15T06:57:49.857Z,-.77
2023-02-15T06:58:19.576Z,-.77
2023-02-15T06:58:51.472Z,-.77
2023-02-15T06:59:23.434Z,-.77
2023-02-15T06:59:55.520Z,-.77
2023-02-15T07:00:27.680Z,-.77
2023-02-15T07:00:59.283Z,-.77
2023-02-15T07:01:31.530Z,-.77
2023-02-15T07:02:03.432Z,-.77
2023-02-15T07:02:35.486Z,-.77
2023-02-15T07:03:07.224Z,-.77
2023-02-15T07:03:39.248Z,-.77
2023-02-15T07:04:11.422Z,-.77
2023-02-15T07:04:43.697Z,-.77
2023-02-15T07:05:15.227Z,-.77
2023-02-15T07:05:47.207Z,-.77
2023-02-15T07:06:19.189Z,-.77
2023-02-15T07:06:53.783Z,-.77
2023-02-15T07:07:23.117Z,-.72
2023-02-15T07:07:55.126Z,-.72
2023-02-15T07:08:27.114Z,-.72
2023-02-15T07:08:59.183Z,-.72
2023-02-15T07:09:31.136Z,-.77
2023-02-15T07:10:03.022Z,-.77
2023-02-15T07:10:35.069Z,-.77